Watertown Municipal, SD

11:14 PM CDT on August 29, 2014 (GMT -0500)
derby downs | Change Station
CLOSE
Current Station
Personal Weather Station
Location: Watertown, SD
Elevation: 1810 ft
Nearby Weather Stations

Elev 1810 ft 44.91 °N, 97.16 °W | Updated 14 minutes ago

Overcast
Overcast
65.9 °F
Feels Like 65.9 °F
N
4.0
Wind Variable Wind from NW

Today
High -- | Low -- °F
--% Chance of Precip.
Yesterday
High -- | Low -- °F
Precip. -- in
6:47 AM 8:10 PM
Waxing Crescent, 19% visible
Pressure 29.83 in
Visibility 10.0 miles
Clouds Overcast 1200 ft
Dew Point 63 °F
Humidity 91%
Rainfall 0.00 in
Snow Depth Not available.
UV 0 out of 12
Pollen 8.90 out of 12
Air Quality Not available.
Flu Activity Not available.
METAR KATY 300353Z AUTO 33013KT 10SM OVC012 19/17 A2985 RMK AO2 SLP102 T01890172

More Conditions Fewer Conditions

Pressure 29.83 in
Visibility 10.0 miles
Clouds Overcast 1200 ft
Dew Point 63 °F
Humidity 91%
Rainfall 0.00 in
Snow Depth Not available.
UV 0 out of 12
Pollen 8.90 out of 12
Air Quality Not available.
Flu Activity Not available.
METAR KATY 300353Z AUTO 33013KT 10SM OVC012 19/17 A2985 RMK AO2 SLP102 T01890172

More Conditions Fewer Conditions

10-Day Weather Forecast

Almanac

Astronomy

Aug. 29, 2014 Rise Set
Actual Time 6:47 AM CDT 8:10 PM CDT
Civil Twilight 6:16 AM CDT 8:41 PM CDT
Nautical Twilight 5:39 AM CDT 9:18 PM CDT
Astronomical Twilight 5:00 AM CDT 9:57 PM CDT
Moon 10:49 AM CDT (8/29) 9:56 PM CDT (8/29)
Length of Visible Light 14h 24m
Length of Day
13h 23m
Tomorrow will be 2m 59s shorter.
Waxing Crescent, 19% of the Moon is Illuminated
Aug 30
Waxing Crescent
Sep 2
First Quarter
Sep 8
Full
Sep 15
Last Quarter
Sep 24
New

Today's Extremes

State Highs State Lows

Community

WunderPhotos

Upload Photos

1,748,448 photos uploaded!

Nearby

Snow Depth

Station Depth Elevation
North Rapid Creek 0 in 6130 ft
Blind Park 0 in 6890 ft

Earthquake Activity

City Distance Mag. Time & Date
No recent earthquake activity has been reported nearby.
Minimum magnitude displayed is 2.5.

Coastal Water Temperatures

Place Temperature
No Stations Reporting

Nearby Weather Stations